createdAt,value
2018-09-29T00:00:33.007Z,11.27
2018-09-29T00:03:01.990Z,10.63
2018-09-29T00:05:31.129Z,10.57
2018-09-29T00:08:00.234Z,11.17
2018-09-29T00:10:29.091Z,10.03
2018-09-29T00:12:59.048Z,10.20
2018-09-29T00:15:27.910Z,10.37
2018-09-29T00:17:56.757Z,10.40
2018-09-29T00:20:25.628Z,9.63
2018-09-29T00:22:54.461Z,10.03
2018-09-29T00:25:23.296Z,10.60
2018-09-29T00:27:52.153Z,9.93
2018-09-29T00:30:21.085Z,9.20
2018-09-29T00:32:49.921Z,9.50
2018-09-29T00:35:18.809Z,8.73
2018-09-29T00:37:47.907Z,7.90
2018-09-29T00:40:16.682Z,9.73
2018-09-29T00:42:45.507Z,8.23
2018-09-29T00:45:14.342Z,10.03
2018-09-29T00:47:43.396Z,8.27
2018-09-29T00:50:12.581Z,9.20
2018-09-29T00:52:41.374Z,8.50
2018-09-29T00:55:10.482Z,8.50
2018-09-29T00:57:39.258Z,10.10
2018-09-29T01:00:08.137Z,8.53
2018-09-29T01:02:37.006Z,8.60
2018-09-29T01:05:05.836Z,8.07
2018-09-29T01:07:34.684Z,7.60
2018-09-29T01:10:03.554Z,7.90
2018-09-29T01:12:32.404Z,7.07
2018-09-29T01:15:01.554Z,6.00
2018-09-29T01:17:30.339Z,7.30
2018-09-29T01:19:59.573Z,6.80
2018-09-29T01:22:28.419Z,5.90
2018-09-29T01:24:57.733Z,5.73
2018-09-29T01:27:26.867Z,6.10
2018-09-29T01:29:56.137Z,5.00
2018-09-29T01:32:24.932Z,4.87
2018-09-29T01:34:53.763Z,4.40
2018-09-29T01:37:22.607Z,5.60
2018-09-29T01:39:51.390Z,4.53
2018-09-29T01:42:20.182Z,4.00
2018-09-29T01:44:49.006Z,4.50
2018-09-29T01:47:18.258Z,5.03
2018-09-29T01:49:47.119Z,4.57
2018-09-29T01:52:15.937Z,4.77
2018-09-29T01:54:44.758Z,4.57
2018-09-29T01:57:13.583Z,4.50
2018-09-29T01:59:42.403Z,4.07
2018-09-29T02:02:11.304Z,4.57
2018-09-29T02:04:40.201Z,4.17
2018-09-29T02:07:08.979Z,4.20
2018-09-29T02:09:38.136Z,3.77
2018-09-29T02:12:06.976Z,4.43
2018-09-29T02:14:35.763Z,3.57
2018-09-29T02:17:04.545Z,3.77
2018-09-29T02:19:33.401Z,4.50
2018-09-29T02:22:02.181Z,3.77
2018-09-29T02:24:30.983Z,4.70
2018-09-29T02:26:59.794Z,3.50
2018-09-29T02:29:28.600Z,3.60
2018-09-29T02:31:57.439Z,4.10
2018-09-29T02:34:26.283Z,5.20
2018-09-29T02:36:55.093Z,3.10
2018-09-29T02:39:23.923Z,3.73
2018-09-29T02:41:52.776Z,4.03
2018-09-29T02:44:21.566Z,4.40
2018-09-29T02:46:50.399Z,4.40
2018-09-29T02:49:19.205Z,3.73
2018-09-29T02:51:48.036Z,3.97
2018-09-29T02:54:16.903Z,4.97
2018-09-29T02:56:45.927Z,3.70
2018-09-29T02:59:14.762Z,4.20
2018-09-29T03:01:43.563Z,4.00
2018-09-29T03:04:12.645Z,4.50
2018-09-29T03:06:41.450Z,4.63
2018-09-29T03:09:10.496Z,4.50
2018-09-29T03:11:39.345Z,4.87
2018-09-29T03:14:08.169Z,4.37
2018-09-29T03:16:37.454Z,4.27
2018-09-29T03:19:06.311Z,3.83
2018-09-29T03:21:35.126Z,5.10
2018-09-29T03:24:03.986Z,4.07
2018-09-29T03:26:32.830Z,4.90
2018-09-29T03:29:02.101Z,3.90
2018-09-29T03:31:31.011Z,3.80
2018-09-29T03:34:00.448Z,4.13
2018-09-29T03:36:29.773Z,4.60
2018-09-29T03:38:58.923Z,4.10
2018-09-29T03:41:27.776Z,3.37
2018-09-29T03:43:56.587Z,5.33
2018-09-29T03:46:25.839Z,4.17
2018-09-29T03:48:54.687Z,5.10
2018-09-29T03:51:23.748Z,3.60
2018-09-29T03:53:52.628Z,4.07
2018-09-29T03:56:22.336Z,4.10
2018-09-29T03:58:51.534Z,4.93
2018-09-29T04:01:20.347Z,3.63
2018-09-29T04:03:49.179Z,4.43
2018-09-29T04:06:17.973Z,4.80
2018-09-29T04:08:46.785Z,4.73
2018-09-29T04:11:15.670Z,4.13
2018-09-29T04:13:44.516Z,5.30
2018-09-29T04:16:13.462Z,4.33
2018-09-29T04:18:42.353Z,4.40
2018-09-29T04:21:11.143Z,4.33
2018-09-29T04:23:40.040Z,5.10
2018-09-29T04:26:08.866Z,3.90
2018-09-29T04:28:37.680Z,4.03
2018-09-29T04:31:06.590Z,4.30
2018-09-29T04:33:35.397Z,4.13
2018-09-29T04:36:04.302Z,5.73
2018-09-29T04:38:40.851Z,4.10
2018-09-29T04:41:09.670Z,5.03
2018-09-29T04:43:38.466Z,3.90
2018-09-29T04:46:07.527Z,5.37
2018-09-29T04:48:36.686Z,4.73
2018-09-29T04:51:05.539Z,3.83
2018-09-29T04:53:34.306Z,4.70
2018-09-29T04:56:03.085Z,4.40
2018-09-29T04:58:31.898Z,4.43
2018-09-29T05:01:00.693Z,4.60
2018-09-29T05:03:29.466Z,3.90
2018-09-29T05:05:58.252Z,3.93
2018-09-29T05:08:27.115Z,4.17
2018-09-29T05:10:55.878Z,4.20
2018-09-29T05:13:24.660Z,4.37
2018-09-29T05:15:53.460Z,3.53
2018-09-29T05:18:22.902Z,3.50
2018-09-29T05:20:51.719Z,3.67
2018-09-29T05:23:20.629Z,4.17
2018-09-29T05:25:49.525Z,4.40
2018-09-29T05:28:18.308Z,3.33
2018-09-29T05:30:47.186Z,3.83
2018-09-29T05:33:16.032Z,2.93
2018-09-29T05:35:44.886Z,3.27
2018-09-29T05:38:13.819Z,4.13
2018-09-29T05:40:42.567Z,3.60
2018-09-29T05:43:11.753Z,3.13
2018-09-29T05:45:43.439Z,3.23
2018-09-29T05:48:12.316Z,3.13
2018-09-29T05:50:41.184Z,4.03
2018-09-29T05:53:10.033Z,3.10
2018-09-29T05:55:38.826Z,3.60
2018-09-29T05:58:07.843Z,3.00
2018-09-29T06:00:36.727Z,3.43
2018-09-29T06:03:05.580Z,3.47
2018-09-29T06:05:34.442Z,2.80
2018-09-29T06:08:03.292Z,3.33
2018-09-29T06:10:32.171Z,4.20
2018-09-29T06:13:01.045Z,2.87
2018-09-29T06:15:29.905Z,4.13
2018-09-29T06:17:58.787Z,3.13
2018-09-29T06:20:27.643Z,3.40
2018-09-29T06:22:56.481Z,3.40
2018-09-29T06:25:25.339Z,2.90
2018-09-29T06:27:54.167Z,3.17
2018-09-29T06:30:22.849Z,3.53
2018-09-29T06:32:51.620Z,3.40
2018-09-29T06:35:20.526Z,2.70
2018-09-29T06:37:49.353Z,3.20
2018-09-29T06:40:18.139Z,2.87
2018-09-29T06:42:46.988Z,2.37
2018-09-29T06:45:15.855Z,3.27
2018-09-29T06:47:44.706Z,3.37
2018-09-29T06:50:13.513Z,3.60
2018-09-29T06:52:42.348Z,2.83
2018-09-29T06:55:11.227Z,2.53
2018-09-29T06:57:40.456Z,3.20
2018-09-29T07:00:09.283Z,2.70
2018-09-29T07:02:38.174Z,3.30
2018-09-29T07:05:08.683Z,2.90
2018-09-29T07:07:37.526Z,3.40
2018-09-29T07:10:06.351Z,3.20
2018-09-29T07:12:35.175Z,2.77
2018-09-29T07:15:04.103Z,2.77
2018-09-29T07:17:32.988Z,3.20
2018-09-29T07:20:01.783Z,3.10
2018-09-29T07:22:30.641Z,3.57
2018-09-29T07:24:59.680Z,3.40
2018-09-29T07:27:28.540Z,3.30
2018-09-29T07:29:57.386Z,3.63
2018-09-29T07:32:26.214Z,2.80
2018-09-29T07:34:55.097Z,2.63
2018-09-29T07:37:34.973Z,3.90
2018-09-29T07:40:05.495Z,3.60
2018-09-29T07:42:40.046Z,3.50
2018-09-29T07:45:11.273Z,3.50
2018-09-29T07:47:40.330Z,3.40
2018-09-29T07:50:09.351Z,3.43
2018-09-29T07:52:38.511Z,4.40
2018-09-29T07:55:07.464Z,3.43
2018-09-29T07:57:36.305Z,3.03
2018-09-29T08:00:05.337Z,3.83
2018-09-29T08:02:34.173Z,3.70
2018-09-29T08:05:03.052Z,3.80
2018-09-29T08:07:31.829Z,3.67
2018-09-29T08:10:00.639Z,3.67
2018-09-29T08:12:29.519Z,4.50
2018-09-29T08:14:58.299Z,3.93
2018-09-29T08:17:33.398Z,3.90
2018-09-29T08:20:02.666Z,3.83
2018-09-29T08:22:31.417Z,4.07
2018-09-29T08:25:00.221Z,3.80
2018-09-29T08:27:29.128Z,4.83
2018-09-29T08:29:57.946Z,5.37
2018-09-29T08:32:26.795Z,5.00
2018-09-29T08:34:55.627Z,5.07
2018-09-29T08:37:24.485Z,4.50
2018-09-29T08:39:53.356Z,4.67
2018-09-29T08:42:22.211Z,4.77
2018-09-29T08:44:50.987Z,5.37
2018-09-29T08:47:19.812Z,5.10
2018-09-29T08:49:48.581Z,5.13
2018-09-29T08:52:17.903Z,4.20
2018-09-29T08:54:46.869Z,3.87
2018-09-29T08:57:15.927Z,4.97
2018-09-29T08:59:44.774Z,5.07
2018-09-29T09:02:13.571Z,4.40
2018-09-29T09:04:42.500Z,5.63
2018-09-29T09:07:11.306Z,5.00
2018-09-29T09:09:40.143Z,4.97
2018-09-29T09:12:09.057Z,6.20
2018-09-29T09:14:37.880Z,5.50
2018-09-29T09:17:06.757Z,6.13
2018-09-29T09:19:35.644Z,6.03
2018-09-29T09:22:04.490Z,5.90
2018-09-29T09:24:33.323Z,6.47
2018-09-29T09:27:02.087Z,6.90
2018-09-29T09:29:30.940Z,6.30
2018-09-29T09:31:59.804Z,7.73
2018-09-29T09:34:28.646Z,8.07
2018-09-29T09:36:57.475Z,7.30
2018-09-29T09:39:26.290Z,8.53
2018-09-29T09:41:55.111Z,7.93
2018-09-29T09:44:23.965Z,9.17
2018-09-29T09:46:53.001Z,8.40
2018-09-29T09:49:21.862Z,10.00
2018-09-29T09:51:51.011Z,10.53
2018-09-29T09:54:19.936Z,11.07
2018-09-29T09:56:48.947Z,9.87
2018-09-29T09:59:17.727Z,11.93
2018-09-29T10:01:51.879Z,11.40
2018-09-29T10:04:20.704Z,11.73
2018-09-29T10:06:49.763Z,12.20
2018-09-29T10:09:18.616Z,11.43
2018-09-29T10:11:47.425Z,12.90
2018-09-29T10:14:16.230Z,11.90
2018-09-29T10:16:45.324Z,11.30
2018-09-29T10:19:14.177Z,10.27
2018-09-29T10:21:42.977Z,9.97
2018-09-29T10:24:11.837Z,10.00
2018-09-29T10:26:40.624Z,10.33
2018-09-29T10:29:09.526Z,10.27
2018-09-29T10:31:38.315Z,10.20
2018-09-29T10:34:07.154Z,9.90
2018-09-29T10:36:36.262Z,10.20
2018-09-29T10:39:08.651Z,11.03
2018-09-29T10:41:37.447Z,10.10
2018-09-29T10:44:06.604Z,10.83
2018-09-29T10:46:35.570Z,10.47
2018-09-29T10:49:04.812Z,10.20
2018-09-29T10:51:33.887Z,10.40
2018-09-29T10:54:03.002Z,10.93
2018-09-29T10:56:31.873Z,10.20
2018-09-29T10:59:01.210Z,10.23
2018-09-29T11:01:30.418Z,9.97
2018-09-29T11:03:59.317Z,9.97
2018-09-29T11:06:28.201Z,8.40
2018-09-29T11:08:57.036Z,8.93
2018-09-29T11:11:25.987Z,10.13
2018-09-29T11:13:54.844Z,8.77
2018-09-29T11:16:23.654Z,8.60
2018-09-29T11:18:52.507Z,8.43
2018-09-29T11:21:21.290Z,9.53
2018-09-29T11:23:50.522Z,8.40
2018-09-29T11:26:19.506Z,9.87
2018-09-29T11:28:48.325Z,9.00
2018-09-29T11:31:17.278Z,7.93
2018-09-29T11:33:46.077Z,9.30
2018-09-29T11:36:14.940Z,8.67
2018-09-29T11:38:43.763Z,8.70
2018-09-29T11:41:12.962Z,8.57
2018-09-29T11:43:41.833Z,7.70
2018-09-29T11:46:10.754Z,8.17
2018-09-29T11:48:39.616Z,8.37
2018-09-29T11:51:08.446Z,8.33
2018-09-29T11:53:37.246Z,8.70
2018-09-29T11:56:06.379Z,7.97
2018-09-29T11:58:35.100Z,6.50
2018-09-29T12:01:04.050Z,8.43
2018-09-29T12:03:32.985Z,6.90
2018-09-29T12:06:01.823Z,8.33
2018-09-29T12:08:30.747Z,6.80
2018-09-29T12:10:59.663Z,8.10
2018-09-29T12:13:28.546Z,7.73
2018-09-29T12:15:57.417Z,8.80
2018-09-29T12:18:26.283Z,8.73
2018-09-29T12:20:55.199Z,8.50
2018-09-29T12:23:24.108Z,8.33
2018-09-29T12:25:53.026Z,8.30
2018-09-29T12:28:21.892Z,8.93
2018-09-29T12:30:50.750Z,7.97
2018-09-29T12:33:19.619Z,8.13
2018-09-29T12:35:48.440Z,8.90
2018-09-29T12:38:17.520Z,8.33
2018-09-29T12:40:46.658Z,6.87
2018-09-29T12:43:15.523Z,7.80
2018-09-29T12:45:44.369Z,7.70
2018-09-29T12:48:13.248Z,8.00
2018-09-29T12:50:42.116Z,7.80
2018-09-29T12:53:11.611Z,9.00
2018-09-29T12:55:40.782Z,6.70
2018-09-29T12:58:09.622Z,7.83
2018-09-29T13:00:38.490Z,7.27
2018-09-29T13:03:07.319Z,7.40
2018-09-29T13:05:36.208Z,7.20
2018-09-29T13:08:05.070Z,6.90
2018-09-29T13:10:34.095Z,6.77
2018-09-29T13:13:03.018Z,8.00
2018-09-29T13:15:32.953Z,7.47
2018-09-29T13:18:02.477Z,6.83
2018-09-29T13:20:32.033Z,7.30
2018-09-29T13:23:01.440Z,7.30
2018-09-29T13:25:31.987Z,7.00
2018-09-29T13:28:02.043Z,7.00
2018-09-29T13:30:31.926Z,7.30
2018-09-29T13:33:01.763Z,7.17
2018-09-29T13:35:30.677Z,7.60
2018-09-29T13:37:59.766Z,6.67
2018-09-29T13:40:28.577Z,6.70
2018-09-29T13:42:57.383Z,6.57
2018-09-29T13:45:26.207Z,6.80
2018-09-29T13:47:56.995Z,7.20
2018-09-29T13:50:25.809Z,7.50
2018-09-29T13:52:54.645Z,8.50
2018-09-29T13:55:23.551Z,7.50
2018-09-29T13:57:52.439Z,8.73
2018-09-29T14:00:21.304Z,7.40
2018-09-29T14:02:50.176Z,7.37
2018-09-29T14:05:19.056Z,6.53
2018-09-29T14:07:47.890Z,6.63
2018-09-29T14:10:16.805Z,7.07
2018-09-29T14:12:45.802Z,7.10
2018-09-29T14:15:14.719Z,7.20
2018-09-29T14:17:43.529Z,7.57
2018-09-29T14:20:12.350Z,7.37
2018-09-29T14:22:41.238Z,7.17
2018-09-29T14:25:10.711Z,6.40
2018-09-29T14:27:41.427Z,7.33
2018-09-29T14:30:11.482Z,6.30
2018-09-29T14:32:43.224Z,6.70
2018-09-29T14:35:12.201Z,6.80
2018-09-29T14:37:42.994Z,5.97
2018-09-29T14:40:25.839Z,7.00
2018-09-29T14:42:54.631Z,6.10
2018-09-29T14:45:23.440Z,6.03
2018-09-29T14:47:52.344Z,6.50
2018-09-29T14:50:21.186Z,5.37
2018-09-29T14:52:50.046Z,5.83
2018-09-29T14:55:18.799Z,6.37
2018-09-29T14:57:47.678Z,6.10
2018-09-29T15:00:16.457Z,5.87
2018-09-29T15:02:45.310Z,5.70
2018-09-29T15:05:16.089Z,5.90
2018-09-29T15:07:44.953Z,6.27
2018-09-29T15:10:13.834Z,6.17
2018-09-29T15:12:42.853Z,5.43
2018-09-29T15:15:11.757Z,6.67
2018-09-29T15:17:40.575Z,6.10
2018-09-29T15:20:11.028Z,5.93
2018-09-29T15:22:39.898Z,6.10
2018-09-29T15:25:08.787Z,5.57
2018-09-29T15:27:37.748Z,5.23
2018-09-29T15:30:06.724Z,5.17
2018-09-29T15:32:35.584Z,5.10
2018-09-29T15:35:04.547Z,5.90
2018-09-29T15:37:33.405Z,5.03
2018-09-29T15:40:03.311Z,4.87
2018-09-29T15:42:32.208Z,4.80
2018-09-29T15:45:01.103Z,5.07
2018-09-29T15:47:29.875Z,5.30
2018-09-29T15:49:59.865Z,5.10
2018-09-29T15:52:29.414Z,5.17
2018-09-29T15:54:58.615Z,5.30
2018-09-29T15:57:27.613Z,4.77
2018-09-29T15:59:56.554Z,4.20
2018-09-29T16:02:25.555Z,5.97
2018-09-29T16:04:54.613Z,5.03
2018-09-29T16:07:23.607Z,4.30
2018-09-29T16:09:52.968Z,5.20
2018-09-29T16:12:21.826Z,5.60
2018-09-29T16:14:50.646Z,4.57
2018-09-29T16:17:19.478Z,4.90
2018-09-29T16:20:17.209Z,4.10
2018-09-29T16:23:15.326Z,4.47
2018-09-29T16:26:14.498Z,4.10
2018-09-29T16:29:12.343Z,4.80
2018-09-29T16:31:41.222Z,5.27
2018-09-29T16:34:10.070Z,4.70
2018-09-29T16:36:38.905Z,4.97
2018-09-29T16:39:10.893Z,6.43
2018-09-29T16:41:39.750Z,5.60
2018-09-29T16:44:08.669Z,5.83
2018-09-29T16:46:37.552Z,5.70
2018-09-29T16:49:09.417Z,5.30
2018-09-29T16:51:38.280Z,4.33
2018-09-29T16:54:15.244Z,5.43
2018-09-29T16:56:50.681Z,5.30
2018-09-29T16:59:22.479Z,5.90
2018-09-29T17:01:56.344Z,6.17
2018-09-29T17:07:13.931Z,6.77
2018-09-29T17:09:42.702Z,5.73
2018-09-29T17:12:11.819Z,6.60
2018-09-29T17:14:40.981Z,6.00
2018-09-29T17:17:10.291Z,5.97
2018-09-29T17:19:39.969Z,6.00
2018-09-29T17:22:09.824Z,6.43
2018-09-29T17:24:39.133Z,5.83
2018-09-29T17:27:10.091Z,6.13
2018-09-29T17:29:39.681Z,6.30
2018-09-29T17:32:08.566Z,7.27
2018-09-29T17:34:38.972Z,6.40
2018-09-29T17:37:07.851Z,5.70
2018-09-29T17:39:36.699Z,5.63
2018-09-29T17:42:05.563Z,7.40
2018-09-29T17:44:34.433Z,6.27
2018-09-29T17:47:03.671Z,6.90
2018-09-29T17:49:32.571Z,7.30
2018-09-29T17:52:01.654Z,8.50
2018-09-29T17:54:30.716Z,7.03
2018-09-29T17:56:59.643Z,5.90
2018-09-29T17:59:29.163Z,5.70
2018-09-29T18:01:58.204Z,6.10
2018-09-29T18:04:27.134Z,5.90
2018-09-29T18:06:55.995Z,7.13
2018-09-29T18:09:24.883Z,5.70
2018-09-29T18:11:53.749Z,6.70
2018-09-29T18:14:22.663Z,7.03
2018-09-29T18:16:51.791Z,6.23
2018-09-29T18:19:20.698Z,7.20
2018-09-29T18:21:49.606Z,6.23
2018-09-29T18:24:18.605Z,6.50
2018-09-29T18:26:47.443Z,6.23
2018-09-29T18:29:16.620Z,6.50
2018-09-29T18:31:45.519Z,6.57
2018-09-29T18:34:14.924Z,5.90
2018-09-29T18:36:43.858Z,7.10
2018-09-29T18:39:13.190Z,6.40
2018-09-29T18:41:42.041Z,6.20
2018-09-29T18:44:10.972Z,6.93
2018-09-29T18:46:40.127Z,6.40
2018-09-29T18:49:09.355Z,5.73
2018-09-29T18:51:38.244Z,5.97
2018-09-29T18:54:07.683Z,5.47
2018-09-29T18:56:37.446Z,6.10
2018-09-29T18:59:06.330Z,6.00
2018-09-29T19:01:35.926Z,6.30
2018-09-29T19:04:06.504Z,6.30
2018-09-29T19:06:36.132Z,6.80
2018-09-29T19:09:08.696Z,4.67
2018-09-29T19:11:40.905Z,5.50
2018-09-29T19:14:15.902Z,5.23
2018-09-29T19:16:45.366Z,6.87
2018-09-29T19:19:14.744Z,5.30
2018-09-29T19:21:44.191Z,5.27
2018-09-29T19:24:14.067Z,5.10
2018-09-29T19:26:43.633Z,4.60
2018-09-29T19:29:14.074Z,5.10
2018-09-29T19:31:43.638Z,3.93
2018-09-29T19:34:13.181Z,4.60
2018-09-29T19:36:45.608Z,4.43
2018-09-29T19:39:15.091Z,4.63
2018-09-29T19:41:44.661Z,4.80
2018-09-29T19:44:13.999Z,4.40
2018-09-29T19:46:44.571Z,4.57
2018-09-29T19:49:14.768Z,3.93
2018-09-29T19:51:45.860Z,4.70
2018-09-29T19:54:16.660Z,4.10
2018-09-29T19:56:46.556Z,4.10
2018-09-29T19:59:15.963Z,4.43
2018-09-29T20:01:45.742Z,4.27
2018-09-29T20:04:16.679Z,4.23
2018-09-29T20:06:46.183Z,3.53
2018-09-29T20:09:15.734Z,4.60
2018-09-29T20:11:45.374Z,4.70
2018-09-29T20:14:14.847Z,4.20
2018-09-29T20:16:44.556Z,4.00
2018-09-29T20:19:13.973Z,4.20
2018-09-29T20:21:43.544Z,3.97
2018-09-29T20:24:13.108Z,4.30
2018-09-29T20:26:42.443Z,4.33
2018-09-29T20:29:11.688Z,4.77
2018-09-29T20:31:41.811Z,4.40
2018-09-29T20:34:11.292Z,4.57
2018-09-29T20:36:41.758Z,4.70
2018-09-29T20:39:13.520Z,3.87
2018-09-29T20:41:47.135Z,4.90
2018-09-29T20:44:16.130Z,4.77
2018-09-29T20:46:45.265Z,4.70
2018-09-29T20:49:14.319Z,4.20
2018-09-29T20:51:43.629Z,4.40
2018-09-29T20:54:12.986Z,6.90
2018-09-29T20:56:42.346Z,5.17
2018-09-29T20:59:12.112Z,4.23
2018-09-29T21:01:41.535Z,4.73
2018-09-29T21:04:11.699Z,4.13
2018-09-29T21:06:41.152Z,5.60
2018-09-29T21:09:10.547Z,4.50
2018-09-29T21:11:39.708Z,4.20
2018-09-29T21:14:09.594Z,5.03
2018-09-29T21:16:38.969Z,4.83
2018-09-29T21:19:08.571Z,5.10
2018-09-29T21:21:38.060Z,4.57
2018-09-29T21:24:07.579Z,4.70
2018-09-29T21:26:36.932Z,6.27
2018-09-29T21:29:06.638Z,5.07
2018-09-29T21:31:37.999Z,4.60
2018-09-29T21:34:07.274Z,4.10
2018-09-29T21:36:37.084Z,4.60
2018-09-29T21:39:08.967Z,5.60
2018-09-29T21:41:38.604Z,4.87
2018-09-29T21:44:08.669Z,4.80
2018-09-29T21:46:38.103Z,5.03
2018-09-29T21:49:07.522Z,4.73
2018-09-29T21:51:37.049Z,3.87
2018-09-29T21:54:06.426Z,4.77
2018-09-29T21:56:36.379Z,5.53
2018-09-29T21:59:06.525Z,4.93
2018-09-29T22:01:35.714Z,5.37
2018-09-29T22:04:04.857Z,4.93
2018-09-29T22:06:34.693Z,4.83
2018-09-29T22:09:09.237Z,5.30
2018-09-29T22:11:38.387Z,5.90
2018-09-29T22:14:07.741Z,5.03
2018-09-29T22:16:37.771Z,5.40
2018-09-29T22:19:07.736Z,5.77
2018-09-29T22:21:37.226Z,5.50
2018-09-29T22:24:06.235Z,4.83
2018-09-29T22:26:35.657Z,5.30
2018-09-29T22:29:04.614Z,6.10
2018-09-29T22:31:34.232Z,4.83
2018-09-29T22:34:09.771Z,5.40
2018-09-29T22:36:38.552Z,7.00
2018-09-29T22:39:09.387Z,6.70
2018-09-29T22:41:38.298Z,5.10
2018-09-29T22:44:07.205Z,5.73
2018-09-29T22:46:36.140Z,5.43
2018-09-29T22:49:05.192Z,5.13
2018-09-29T22:51:34.081Z,5.50
2018-09-29T22:54:02.958Z,6.20
2018-09-29T22:56:31.770Z,6.10
2018-09-29T22:59:00.667Z,5.90
2018-09-29T23:01:29.458Z,6.47
2018-09-29T23:03:58.448Z,7.70
2018-09-29T23:06:27.267Z,6.03
2018-09-29T23:08:56.117Z,5.70
2018-09-29T23:11:25.021Z,7.10
2018-09-29T23:13:53.961Z,5.13
2018-09-29T23:16:22.806Z,5.57
2018-09-29T23:18:57.828Z,5.73
2018-09-29T23:21:26.580Z,6.57
2018-09-29T23:23:55.424Z,6.90
2018-09-29T23:26:24.361Z,6.50
2018-09-29T23:28:53.237Z,6.30
2018-09-29T23:31:22.531Z,5.70
2018-09-29T23:33:51.383Z,5.97
2018-09-29T23:36:20.266Z,7.27
2018-09-29T23:38:49.062Z,6.10
2018-09-29T23:41:17.956Z,6.23
2018-09-29T23:43:46.820Z,5.67
2018-09-29T23:46:15.672Z,6.50
2018-09-29T23:48:44.561Z,6.13
2018-09-29T23:51:13.446Z,6.83
2018-09-29T23:53:42.348Z,6.83
2018-09-29T23:56:11.206Z,7.07
2018-09-29T23:58:40.056Z,5.80
